createdAt,value
2019-03-08T00:00:25.299Z,25.85
2019-03-08T00:01:28.314Z,25.84
2019-03-08T00:02:29.479Z,25.83
2019-03-08T00:03:30.590Z,25.88
2019-03-08T00:04:31.699Z,25.86
2019-03-08T00:05:32.812Z,25.89
2019-03-08T00:06:33.930Z,25.88
2019-03-08T00:07:35.056Z,25.89
2019-03-08T00:08:36.280Z,25.93
2019-03-08T00:09:37.606Z,25.97
2019-03-08T00:10:38.734Z,25.93
2019-03-08T00:11:39.848Z,25.91
2019-03-08T00:12:41.113Z,25.94
2019-03-08T00:13:42.227Z,25.95
2019-03-08T00:14:43.362Z,25.95
2019-03-08T00:15:44.576Z,25.93
2019-03-08T00:16:45.689Z,25.93
2019-03-08T00:17:46.816Z,25.96
2019-03-08T00:18:47.936Z,25.98
2019-03-08T00:19:49.444Z,25.96
2019-03-08T00:20:50.669Z,25.98
2019-03-08T00:21:51.782Z,25.93
2019-03-08T00:22:52.937Z,25.96
2019-03-08T00:23:54.052Z,25.97
2019-03-08T00:24:55.169Z,26.00
2019-03-08T00:25:56.386Z,25.99
2019-03-08T00:26:57.608Z,25.97
2019-03-08T00:27:58.763Z,25.93
2019-03-08T00:29:00.285Z,25.96
2019-03-08T00:30:01.395Z,25.97
2019-03-08T00:31:02.509Z,25.97
2019-03-08T00:32:03.719Z,26.00
2019-03-08T00:33:04.844Z,26.00
2019-03-08T00:34:06.056Z,25.98
2019-03-08T00:35:07.965Z,26.00
2019-03-08T00:36:09.075Z,25.98
2019-03-08T00:37:10.200Z,25.99
2019-03-08T00:38:11.728Z,26.00
2019-03-08T00:39:12.952Z,25.98
2019-03-08T00:40:14.064Z,25.96
2019-03-08T00:41:15.172Z,25.99
2019-03-08T00:42:16.445Z,25.99
2019-03-08T00:43:17.575Z,25.98
2019-03-08T00:44:18.697Z,25.98
2019-03-08T00:45:19.808Z,26.00
2019-03-08T00:46:20.921Z,25.98
2019-03-08T00:47:22.066Z,26.01
2019-03-08T00:48:23.299Z,26.00
2019-03-08T00:49:24.417Z,26.01
2019-03-08T00:50:25.530Z,25.98
2019-03-08T00:51:26.644Z,26.01
2019-03-08T00:52:28.187Z,25.98
2019-03-08T00:53:29.317Z,25.95
2019-03-08T00:54:30.437Z,25.96
2019-03-08T00:55:31.548Z,25.99
2019-03-08T00:56:32.668Z,26.00
2019-03-08T00:57:34.069Z,25.96
2019-03-08T00:58:35.199Z,25.96
2019-03-08T00:59:36.313Z,25.96
2019-03-08T01:00:37.625Z,25.95
2019-03-08T01:01:38.860Z,26.00
2019-03-08T01:02:40.076Z,26.00
2019-03-08T01:03:41.304Z,26.01
2019-03-08T01:04:42.422Z,26.01
2019-03-08T01:05:43.646Z,26.01
2019-03-08T01:06:44.965Z,26.04
2019-03-08T01:07:46.068Z,26.06
2019-03-08T01:08:47.317Z,26.05
2019-03-08T01:09:48.609Z,26.06
2019-03-08T01:10:49.727Z,26.08
2019-03-08T01:11:50.933Z,26.07
2019-03-08T01:12:52.147Z,26.06
2019-03-08T01:13:53.276Z,26.06
2019-03-08T01:14:54.388Z,26.04
2019-03-08T01:15:55.604Z,26.10
2019-03-08T01:16:57.118Z,26.12
2019-03-08T01:17:58.330Z,26.12
2019-03-08T01:18:59.778Z,26.09
2019-03-08T01:20:00.891Z,26.08
2019-03-08T01:21:02.113Z,26.12
2019-03-08T01:22:03.220Z,26.09
2019-03-08T01:23:04.675Z,26.12
2019-03-08T01:24:05.917Z,26.10
2019-03-08T01:25:08.207Z,26.11
2019-03-08T01:26:09.520Z,26.12
2019-03-08T01:27:10.645Z,26.13
2019-03-08T01:28:11.855Z,26.09
2019-03-08T01:29:13.011Z,26.15
2019-03-08T01:30:14.123Z,26.13
2019-03-08T01:31:15.233Z,26.08
2019-03-08T01:32:16.348Z,26.11
2019-03-08T01:33:17.462Z,26.10
2019-03-08T01:34:18.690Z,26.14
2019-03-08T01:35:20.010Z,26.15
2019-03-08T01:36:21.120Z,26.13
2019-03-08T01:37:22.233Z,26.15
2019-03-08T01:38:23.346Z,26.16
2019-03-08T01:39:24.479Z,26.17
2019-03-08T01:40:27.510Z,26.17
2019-03-08T01:41:28.601Z,26.16
2019-03-08T01:42:29.756Z,26.15
2019-03-08T01:43:30.990Z,26.16
2019-03-08T01:44:33.865Z,26.18
2019-03-08T01:45:35.152Z,26.17
2019-03-08T01:46:36.260Z,26.18
2019-03-08T01:47:37.380Z,26.16
2019-03-08T01:48:38.496Z,26.15
2019-03-08T01:49:39.620Z,26.13
2019-03-08T01:50:40.739Z,26.16
2019-03-08T01:51:41.848Z,26.17
2019-03-08T01:52:42.960Z,26.15
2019-03-08T01:53:44.074Z,26.17
2019-03-08T01:54:45.379Z,26.15
2019-03-08T01:55:46.581Z,26.13
2019-03-08T01:56:47.713Z,26.13
2019-03-08T01:57:48.929Z,26.14
2019-03-08T01:58:50.041Z,26.13
2019-03-08T01:59:51.272Z,26.13
2019-03-08T02:00:52.480Z,26.15
2019-03-08T02:01:53.594Z,26.09
2019-03-08T02:02:54.710Z,26.07
2019-03-08T02:03:55.830Z,26.07
2019-03-08T02:04:57.383Z,26.09
2019-03-08T02:05:58.590Z,26.07
2019-03-08T02:06:59.706Z,26.08
2019-03-08T02:08:00.820Z,26.11
2019-03-08T02:09:02.330Z,26.07
2019-03-08T02:10:06.768Z,26.05
2019-03-08T02:11:07.892Z,26.04
2019-03-08T02:12:09.009Z,26.07
2019-03-08T02:13:10.119Z,26.08
2019-03-08T02:14:11.230Z,26.12
2019-03-08T02:15:14.356Z,26.12
2019-03-08T02:16:15.475Z,26.10
2019-03-08T02:17:16.590Z,26.12
2019-03-08T02:18:17.823Z,26.13
2019-03-08T02:19:18.926Z,26.15
2019-03-08T02:20:21.355Z,26.15
2019-03-08T02:21:22.464Z,26.13
2019-03-08T02:22:23.715Z,26.17
2019-03-08T02:23:24.799Z,26.18
2019-03-08T02:24:26.224Z,26.17
2019-03-08T02:25:27.880Z,26.20
2019-03-08T02:26:28.993Z,26.17
2019-03-08T02:27:30.112Z,26.19
2019-03-08T02:28:31.228Z,26.20
2019-03-08T02:29:32.344Z,26.20
2019-03-08T02:30:33.475Z,26.23
2019-03-08T02:31:34.595Z,26.17
2019-03-08T02:32:35.900Z,26.19
2019-03-08T02:33:37.119Z,26.21
2019-03-08T02:34:38.231Z,26.23
2019-03-08T02:35:39.389Z,26.20
2019-03-08T02:36:40.504Z,26.23
2019-03-08T02:37:41.635Z,26.21
2019-03-08T02:38:42.855Z,26.23
2019-03-08T02:39:43.975Z,26.22
2019-03-08T02:40:45.217Z,26.21
2019-03-08T02:41:46.334Z,26.20
2019-03-08T02:42:47.588Z,26.22
2019-03-08T02:43:48.906Z,26.24
2019-03-08T02:44:50.025Z,26.25
2019-03-08T02:45:51.259Z,26.21
2019-03-08T02:46:52.478Z,26.21
2019-03-08T02:47:53.588Z,26.21
2019-03-08T02:48:54.699Z,26.22
2019-03-08T02:49:55.813Z,26.20
2019-03-08T02:50:57.075Z,26.22
2019-03-08T02:51:58.292Z,26.18
2019-03-08T02:52:59.507Z,26.17
2019-03-08T02:54:00.720Z,26.17
2019-03-08T02:55:01.832Z,26.17
2019-03-08T02:56:02.960Z,26.18
2019-03-08T02:57:04.172Z,26.18
2019-03-08T02:58:05.283Z,26.18
2019-03-08T02:59:06.400Z,26.17
2019-03-08T03:00:10.315Z,26.15
2019-03-08T03:01:11.443Z,26.16
2019-03-08T03:02:12.661Z,26.16
2019-03-08T03:03:15.288Z,26.14
2019-03-08T03:04:16.394Z,26.16
2019-03-08T03:05:17.512Z,26.14
2019-03-08T03:06:18.739Z,26.18
2019-03-08T03:07:19.857Z,26.13
2019-03-08T03:08:20.969Z,26.16
2019-03-08T03:09:22.089Z,26.19
2019-03-08T03:10:23.217Z,26.19
2019-03-08T03:11:24.424Z,26.20
2019-03-08T03:12:25.576Z,26.18
2019-03-08T03:13:26.988Z,26.17
2019-03-08T03:14:28.209Z,26.16
2019-03-08T03:15:29.428Z,26.19
2019-03-08T03:16:30.559Z,26.20
2019-03-08T03:17:31.664Z,26.19
2019-03-08T03:18:32.777Z,26.19
2019-03-08T03:19:33.900Z,26.22
2019-03-08T03:20:35.011Z,26.21
2019-03-08T03:21:36.137Z,26.23
2019-03-08T03:22:37.454Z,26.25
2019-03-08T03:23:38.582Z,26.25
2019-03-08T03:24:39.688Z,26.27
2019-03-08T03:25:40.802Z,26.27
2019-03-08T03:26:42.036Z,26.29
2019-03-08T03:27:44.782Z,26.29
2019-03-08T03:28:45.896Z,26.27
2019-03-08T03:29:47.012Z,26.29
2019-03-08T03:30:48.129Z,26.30
2019-03-08T03:31:49.260Z,26.30
2019-03-08T03:32:50.383Z,26.32
2019-03-08T03:33:51.493Z,26.31
2019-03-08T03:34:52.604Z,26.29
2019-03-08T03:35:53.719Z,26.33
2019-03-08T03:36:55.044Z,26.32
2019-03-08T03:37:56.152Z,26.33
2019-03-08T03:38:57.270Z,26.32
2019-03-08T03:39:58.384Z,26.33
2019-03-08T03:40:59.506Z,26.32
2019-03-08T03:42:00.929Z,26.36
2019-03-08T03:43:02.188Z,26.35
2019-03-08T03:44:03.397Z,26.36
2019-03-08T03:45:07.108Z,26.38
2019-03-08T03:46:08.230Z,26.36
2019-03-08T03:47:09.387Z,26.33
2019-03-08T03:48:10.500Z,26.32
2019-03-08T03:49:11.608Z,26.34
2019-03-08T03:50:13.727Z,26.37
2019-03-08T03:51:15.039Z,26.37
2019-03-08T03:52:16.175Z,26.33
2019-03-08T03:53:17.284Z,26.34
2019-03-08T03:54:18.401Z,26.38
2019-03-08T03:55:19.516Z,26.36
2019-03-08T03:56:20.730Z,26.37
2019-03-08T03:57:22.023Z,26.37
2019-03-08T03:58:23.133Z,26.37
2019-03-08T03:59:24.249Z,26.37
2019-03-08T04:00:25.462Z,26.34
2019-03-08T04:01:31.570Z,26.34
2019-03-08T04:02:32.808Z,26.30
2019-03-08T04:03:33.921Z,26.26
2019-03-08T04:04:35.041Z,26.30
2019-03-08T04:05:36.258Z,26.32
2019-03-08T04:06:37.371Z,26.28
2019-03-08T04:07:38.517Z,26.29
2019-03-08T04:08:39.633Z,26.32
2019-03-08T04:09:40.744Z,26.32
2019-03-08T04:10:41.872Z,26.32
2019-03-08T04:11:43.410Z,26.35
2019-03-08T04:12:44.863Z,26.29
2019-03-08T04:13:45.979Z,26.26
2019-03-08T04:14:47.091Z,26.25
2019-03-08T04:15:48.404Z,26.29
2019-03-08T04:16:49.517Z,26.31
2019-03-08T04:17:50.674Z,26.29
2019-03-08T04:18:51.788Z,26.25
2019-03-08T04:19:53.008Z,26.26
2019-03-08T04:20:54.425Z,26.28
2019-03-08T04:21:55.541Z,26.30
2019-03-08T04:22:56.797Z,26.29
2019-03-08T04:23:57.913Z,26.26
2019-03-08T04:24:59.137Z,26.29
2019-03-08T04:26:00.248Z,26.29
2019-03-08T04:27:01.366Z,26.26
2019-03-08T04:28:02.521Z,26.26
2019-03-08T04:29:03.654Z,26.27
2019-03-08T04:30:11.278Z,26.29
2019-03-08T04:31:12.684Z,26.25
2019-03-08T04:32:13.793Z,26.28
2019-03-08T04:33:15.138Z,26.26
2019-03-08T04:34:16.248Z,26.28
2019-03-08T04:35:17.389Z,26.29
2019-03-08T04:36:18.472Z,26.26
2019-03-08T04:37:19.702Z,26.24
2019-03-08T04:38:20.861Z,26.28
2019-03-08T04:39:21.971Z,26.30
2019-03-08T04:40:23.443Z,26.33
2019-03-08T04:41:24.589Z,26.34
2019-03-08T04:42:25.692Z,26.29
2019-03-08T04:43:26.856Z,26.29
2019-03-08T04:44:27.971Z,26.32
2019-03-08T04:45:29.084Z,26.33
2019-03-08T04:46:30.204Z,26.33
2019-03-08T04:47:31.318Z,26.34
2019-03-08T04:48:32.475Z,26.32
2019-03-08T04:49:33.607Z,26.32
2019-03-08T04:50:35.020Z,26.32
2019-03-08T04:51:36.237Z,26.30
2019-03-08T04:52:37.348Z,26.31
2019-03-08T04:53:38.476Z,26.32
2019-03-08T04:54:39.595Z,26.34
2019-03-08T04:55:40.706Z,26.35
2019-03-08T04:56:41.819Z,26.34
2019-03-08T04:57:42.932Z,26.37
2019-03-08T04:58:44.056Z,26.38
2019-03-08T04:59:45.377Z,26.35
2019-03-08T05:00:46.610Z,26.36
2019-03-08T05:01:47.824Z,26.35
2019-03-08T05:02:48.933Z,26.34
2019-03-08T05:03:50.055Z,26.32
2019-03-08T05:04:51.172Z,26.33
2019-03-08T05:05:52.285Z,26.32
2019-03-08T05:06:53.399Z,26.33
2019-03-08T05:07:54.621Z,26.33
2019-03-08T05:08:56.225Z,26.31
2019-03-08T05:09:57.341Z,26.28
2019-03-08T05:10:58.470Z,26.30
2019-03-08T05:11:59.718Z,26.32
2019-03-08T05:13:00.834Z,26.32
2019-03-08T05:14:02.091Z,26.34
2019-03-08T05:15:04.605Z,26.34
2019-03-08T05:16:05.717Z,26.33
2019-03-08T05:17:06.840Z,26.32
2019-03-08T05:18:08.050Z,26.27
2019-03-08T05:19:09.301Z,26.27
2019-03-08T05:20:10.610Z,26.32
2019-03-08T05:21:11.726Z,26.32
2019-03-08T05:22:12.838Z,26.28
2019-03-08T05:23:13.949Z,26.26
2019-03-08T05:24:15.277Z,26.25
2019-03-08T05:25:16.389Z,26.29
2019-03-08T05:26:17.509Z,26.31
2019-03-08T05:27:18.761Z,26.29
2019-03-08T05:28:20.276Z,26.27
2019-03-08T05:29:24.193Z,26.26
2019-03-08T05:30:24.460Z,26.28
2019-03-08T05:31:25.576Z,26.21
2019-03-08T05:32:26.693Z,26.17
2019-03-08T05:33:27.802Z,26.21
2019-03-08T05:34:29.054Z,26.23
2019-03-08T05:35:30.173Z,26.24
2019-03-08T05:36:31.289Z,26.18
2019-03-08T05:37:32.703Z,26.18
2019-03-08T05:38:33.817Z,26.20
2019-03-08T05:39:34.953Z,26.20
2019-03-08T05:40:36.070Z,26.22
2019-03-08T05:41:37.184Z,26.21
2019-03-08T05:42:38.299Z,26.20
2019-03-08T05:43:39.528Z,26.17
2019-03-08T05:44:40.788Z,26.17
2019-03-08T05:45:41.904Z,26.21
2019-03-08T05:46:43.226Z,26.20
2019-03-08T05:47:44.342Z,26.21
2019-03-08T05:48:45.560Z,26.19
2019-03-08T05:49:46.898Z,26.22
2019-03-08T05:50:48.009Z,26.23
2019-03-08T05:51:49.126Z,26.23
2019-03-08T05:52:50.252Z,26.25
2019-03-08T05:53:51.369Z,26.24
2019-03-08T05:54:52.509Z,26.24
2019-03-08T05:55:53.720Z,26.26
2019-03-08T05:56:54.833Z,26.26
2019-03-08T05:57:55.949Z,26.27
2019-03-08T05:58:57.071Z,26.26
2019-03-08T05:59:58.293Z,26.27
2019-03-08T06:00:59.408Z,26.27
2019-03-08T06:02:00.522Z,26.26
2019-03-08T06:03:02.287Z,26.26
2019-03-08T06:04:03.404Z,26.27
2019-03-08T06:05:06.133Z,26.27
2019-03-08T06:06:07.552Z,26.26
2019-03-08T06:07:08.668Z,26.26
2019-03-08T06:08:09.780Z,26.26
2019-03-08T06:09:10.892Z,26.27
2019-03-08T06:10:26.736Z,26.24
2019-03-08T06:11:27.861Z,26.23
2019-03-08T06:12:28.988Z,26.17
2019-03-08T06:13:30.104Z,26.15
2019-03-08T06:14:31.217Z,26.12
2019-03-08T06:15:32.339Z,26.08
2019-03-08T06:16:33.455Z,26.03
2019-03-08T06:17:34.573Z,25.94
2019-03-08T06:18:35.790Z,25.89
2019-03-08T06:19:37.007Z,25.79
2019-03-08T06:20:38.138Z,25.71
2019-03-08T06:21:39.249Z,25.62
2019-03-08T06:22:40.365Z,25.53
2019-03-08T06:23:41.481Z,25.44
2019-03-08T06:24:42.591Z,25.36
2019-03-08T06:25:43.717Z,25.28
2019-03-08T06:26:44.930Z,25.16
2019-03-08T06:27:46.058Z,25.07
2019-03-08T06:28:47.161Z,25.00
2019-03-08T06:29:48.276Z,24.87
2019-03-08T06:30:49.398Z,24.82
2019-03-08T06:31:50.513Z,24.73
2019-03-08T06:32:51.624Z,24.65
2019-03-08T06:33:52.732Z,24.56
2019-03-08T06:34:53.991Z,24.43
2019-03-08T06:35:55.071Z,24.35
2019-03-08T06:36:56.189Z,24.28
2019-03-08T06:37:57.301Z,24.22
2019-03-08T06:38:58.411Z,24.15
2019-03-08T06:39:59.562Z,24.05
2019-03-08T06:41:00.760Z,23.98
2019-03-08T06:42:01.872Z,23.91
2019-03-08T06:43:03.398Z,23.85
2019-03-08T06:44:04.608Z,23.78
2019-03-08T06:45:09.120Z,23.74
2019-03-08T06:46:10.244Z,23.67
2019-03-08T06:47:11.362Z,23.63
2019-03-08T06:48:12.488Z,23.55
2019-03-08T06:49:13.604Z,23.52
2019-03-08T06:50:14.713Z,23.47
2019-03-08T06:51:16.012Z,23.41
2019-03-08T06:52:17.129Z,23.37
2019-03-08T06:53:18.246Z,23.34
2019-03-08T06:54:19.869Z,23.32
2019-03-08T06:55:20.980Z,23.31
2019-03-08T06:56:22.294Z,23.27
2019-03-08T06:57:23.408Z,23.24
2019-03-08T06:58:29.191Z,23.19
2019-03-08T06:59:32.209Z,23.17
2019-03-08T07:00:47.364Z,23.17
2019-03-08T07:01:48.593Z,23.16
2019-03-08T07:02:49.804Z,23.13
2019-03-08T07:03:50.922Z,23.11
2019-03-08T07:04:52.033Z,23.11
2019-03-08T07:05:53.250Z,23.11
2019-03-08T07:06:54.848Z,23.10
2019-03-08T07:07:56.064Z,23.11
2019-03-08T07:08:57.182Z,23.07
2019-03-08T07:09:58.298Z,23.07
2019-03-08T07:10:59.422Z,23.07
2019-03-08T07:12:00.707Z,23.05
2019-03-08T07:13:03.624Z,23.06
2019-03-08T07:14:04.840Z,23.07
2019-03-08T07:15:06.181Z,23.06
2019-03-08T07:16:13.291Z,23.07
2019-03-08T07:17:10.796Z,23.04
2019-03-08T07:18:13.096Z,23.06
2019-03-08T07:19:14.428Z,23.04
2019-03-08T07:20:29.564Z,23.03
2019-03-08T07:21:32.591Z,23.03
2019-03-08T07:22:44.922Z,23.00
2019-03-08T07:23:47.939Z,22.99
2019-03-08T07:24:50.959Z,22.98
2019-03-08T07:26:02.897Z,22.98
2019-03-08T07:27:14.919Z,22.98
2019-03-08T07:28:23.861Z,22.96
2019-03-08T07:29:29.762Z,22.96
2019-03-08T07:30:32.789Z,22.97
2019-03-08T07:31:38.346Z,22.97
2019-03-08T07:32:57.769Z,22.97
2019-03-08T07:34:06.338Z,22.98
2019-03-08T07:35:26.133Z,22.98
2019-03-08T07:36:34.957Z,22.99
2019-03-08T07:37:37.976Z,22.99
2019-03-08T07:38:57.621Z,23.02
2019-03-08T07:40:00.648Z,23.00
2019-03-08T07:41:03.669Z,23.00
2019-03-08T07:42:09.214Z,23.00
2019-03-08T07:43:12.232Z,23.03
2019-03-08T07:44:15.263Z,23.03
2019-03-08T07:45:34.680Z,23.01
2019-03-08T07:46:37.715Z,23.04
2019-03-08T07:47:40.739Z,23.01
2019-03-08T07:48:43.760Z,23.03
2019-03-08T07:49:52.558Z,23.02
2019-03-08T07:50:58.156Z,23.02
2019-03-08T07:52:04.204Z,22.99
2019-03-08T07:53:19.373Z,23.02
2019-03-08T07:54:22.397Z,23.00
2019-03-08T07:55:25.413Z,22.99
2019-03-08T07:56:43.564Z,23.02
2019-03-08T07:58:01.558Z,23.03
2019-03-08T07:59:04.573Z,23.04
2019-03-08T08:00:11.192Z,23.04
2019-03-08T08:01:16.920Z,23.04
2019-03-08T08:02:22.777Z,23.06
2019-03-08T08:03:28.583Z,23.07
2019-03-08T08:04:37.152Z,23.07
2019-03-08T08:05:46.246Z,23.07
2019-03-08T08:06:49.265Z,23.13
2019-03-08T08:07:52.295Z,23.12
2019-03-08T08:08:55.316Z,23.16
2019-03-08T08:09:58.334Z,23.14
2019-03-08T08:11:07.257Z,23.14
2019-03-08T08:12:22.571Z,23.13
2019-03-08T08:13:28.585Z,23.24
2019-03-08T08:14:40.692Z,23.21
2019-03-08T08:15:46.216Z,23.24
2019-03-08T08:17:07.485Z,23.23
2019-03-08T08:18:27.553Z,23.23
2019-03-08T08:19:36.232Z,23.26
2019-03-08T08:20:44.795Z,23.26
2019-03-08T08:22:04.612Z,23.27
2019-03-08T08:23:16.485Z,23.30
2019-03-08T08:24:19.515Z,23.25
2019-03-08T08:25:39.026Z,23.29
2019-03-08T08:26:44.550Z,23.29
2019-03-08T08:28:05.798Z,23.32
2019-03-08T08:29:34.546Z,23.29
2019-03-08T08:30:30.196Z,23.29
2019-03-08T08:31:33.415Z,23.29
2019-03-08T08:32:53.146Z,23.31
2019-03-08T08:34:12.941Z,23.33
2019-03-08T08:35:15.965Z,23.33
2019-03-08T08:36:35.383Z,23.28
2019-03-08T08:37:38.406Z,23.31
2019-03-08T08:38:56.281Z,23.30
2019-03-08T08:39:59.341Z,23.29
2019-03-08T08:41:02.361Z,23.30
2019-03-08T08:42:11.013Z,23.31
2019-03-08T08:43:31.984Z,23.32
2019-03-08T08:44:35.020Z,23.33
2019-03-08T08:45:46.862Z,23.31
2019-03-08T08:46:52.798Z,23.30
2019-03-08T08:47:55.812Z,23.29
2019-03-08T08:49:07.418Z,23.26
2019-03-08T08:50:22.271Z,23.24
2019-03-08T08:51:41.635Z,23.27
2019-03-08T08:53:02.573Z,23.27
2019-03-08T08:54:17.448Z,23.25
2019-03-08T08:55:29.608Z,23.26
2019-03-08T08:56:48.986Z,23.26
2019-03-08T08:57:54.606Z,23.28
2019-03-08T08:59:09.979Z,23.30
2019-03-08T09:00:32.886Z,23.34
2019-03-08T09:01:44.743Z,23.33
2019-03-08T09:02:47.761Z,23.36
2019-03-08T09:03:53.536Z,23.35
2019-03-08T09:05:13.132Z,23.36
2019-03-08T09:06:16.159Z,23.36
2019-03-08T09:07:31.097Z,23.38
2019-03-08T09:08:47.429Z,23.41
2019-03-08T09:10:05.696Z,23.41
2019-03-08T09:11:08.833Z,23.40
2019-03-08T09:12:11.866Z,23.41
2019-03-08T09:13:20.476Z,23.47
2019-03-08T09:14:32.596Z,23.48
2019-03-08T09:15:41.167Z,23.47
2019-03-08T09:16:46.873Z,23.47
2019-03-08T09:17:52.772Z,23.47
2019-03-08T09:18:55.748Z,23.49
2019-03-08T09:19:59.372Z,23.48
2019-03-08T09:21:05.495Z,23.48
2019-03-08T09:22:11.281Z,23.46
2019-03-08T09:23:32.413Z,23.46
2019-03-08T09:24:38.360Z,23.45
2019-03-08T09:25:53.023Z,23.41
2019-03-08T09:26:56.026Z,23.46
2019-03-08T09:27:59.053Z,23.48
2019-03-08T09:29:02.070Z,23.47
2019-03-08T09:30:08.688Z,23.46
2019-03-08T09:31:14.209Z,23.47
2019-03-08T09:32:17.243Z,23.47
2019-03-08T09:33:20.266Z,23.49
2019-03-08T09:34:29.448Z,23.48
2019-03-08T09:35:35.601Z,23.47
2019-03-08T09:36:41.816Z,23.45
2019-03-08T09:37:50.654Z,23.46
2019-03-08T09:38:56.538Z,23.47
2019-03-08T09:40:05.426Z,23.46
2019-03-08T09:41:08.439Z,23.46
2019-03-08T09:42:11.458Z,23.47
2019-03-08T09:43:14.578Z,23.50
2019-03-08T09:44:20.116Z,23.47
2019-03-08T09:45:23.274Z,23.47
2019-03-08T09:46:43.102Z,23.46
2019-03-08T09:47:46.129Z,23.45
2019-03-08T09:48:52.036Z,23.44
2019-03-08T09:50:03.646Z,23.44
2019-03-08T09:51:09.360Z,23.47
2019-03-08T09:52:12.378Z,23.45
2019-03-08T09:53:20.985Z,23.47
2019-03-08T09:54:26.813Z,23.47
2019-03-08T09:55:29.830Z,23.45
2019-03-08T09:56:32.844Z,23.45
2019-03-08T09:57:35.858Z,23.43
2019-03-08T09:58:38.880Z,23.45
2019-03-08T09:59:44.504Z,23.45
2019-03-08T10:00:53.281Z,23.46
2019-03-08T10:02:05.173Z,23.45
2019-03-08T10:03:11.065Z,23.46
2019-03-08T10:04:14.095Z,23.44
2019-03-08T10:05:17.440Z,23.46
2019-03-08T10:06:32.965Z,23.46
2019-03-08T10:07:38.825Z,23.45
2019-03-08T10:08:42.040Z,23.46
2019-03-08T10:09:45.063Z,23.46
2019-03-08T10:10:50.852Z,23.47
2019-03-08T10:12:05.737Z,23.51
2019-03-08T10:13:17.556Z,23.51
2019-03-08T10:14:29.998Z,23.51
2019-03-08T10:15:39.246Z,23.50
2019-03-08T10:16:58.010Z,23.51
2019-03-08T10:18:17.713Z,23.54
2019-03-08T10:19:20.728Z,23.49
2019-03-08T10:20:32.370Z,23.52
2019-03-08T10:21:44.429Z,23.54
2019-03-08T10:22:59.497Z,23.57
2019-03-08T10:24:03.006Z,23.56
2019-03-08T10:25:19.016Z,23.56
2019-03-08T10:26:22.093Z,23.54
2019-03-08T10:27:25.106Z,23.54
2019-03-08T10:28:28.125Z,23.56
2019-03-08T10:29:31.148Z,23.59
2019-03-08T10:30:39.718Z,23.57
2019-03-08T10:31:59.194Z,23.51
2019-03-08T10:33:18.683Z,23.49
2019-03-08T10:34:24.405Z,23.49
2019-03-08T10:35:39.076Z,23.50
2019-03-08T10:36:48.897Z,23.54
2019-03-08T10:38:00.528Z,23.53
2019-03-08T10:39:12.563Z,23.56
2019-03-08T10:40:31.976Z,23.56
2019-03-08T10:41:46.852Z,23.58
2019-03-08T10:42:52.381Z,23.55
2019-03-08T10:43:55.401Z,23.54
2019-03-08T10:44:58.436Z,23.55
2019-03-08T10:46:18.038Z,23.59
2019-03-08T10:47:21.053Z,23.57
2019-03-08T10:48:26.741Z,23.54
2019-03-08T10:49:29.767Z,23.52
2019-03-08T10:50:51.671Z,23.54
2019-03-08T10:52:00.362Z,23.51
2019-03-08T10:53:03.371Z,23.50
2019-03-08T10:54:12.571Z,23.52
2019-03-08T10:55:24.603Z,23.53
2019-03-08T10:56:39.598Z,23.54
2019-03-08T10:57:45.271Z,23.54
2019-03-08T10:59:05.286Z,23.51
2019-03-08T11:00:12.222Z,23.52
2019-03-08T11:01:30.381Z,23.54
2019-03-08T11:02:45.027Z,23.55
2019-03-08T11:03:53.794Z,23.56
2019-03-08T11:05:02.388Z,23.59
2019-03-08T11:06:17.249Z,23.59
2019-03-08T11:07:22.780Z,23.58
2019-03-08T11:08:29.977Z,23.58
2019-03-08T11:09:35.817Z,23.56
2019-03-08T11:10:41.522Z,23.55
2019-03-08T11:11:47.354Z,23.55
2019-03-08T11:12:56.192Z,23.54
2019-03-08T11:13:59.223Z,23.54
2019-03-08T11:15:24.091Z,23.52
2019-03-08T11:16:22.378Z,23.54
2019-03-08T11:17:31.256Z,23.49
2019-03-08T11:18:37.125Z,23.48
2019-03-08T11:19:52.412Z,23.49
2019-03-08T11:21:07.683Z,23.51
2019-03-08T11:22:10.708Z,23.50
2019-03-08T11:23:19.614Z,23.50
2019-03-08T11:24:28.317Z,23.49
2019-03-08T11:25:49.128Z,23.47
2019-03-08T11:27:05.049Z,23.48
2019-03-08T11:28:08.772Z,23.45
2019-03-08T11:29:28.095Z,23.48
2019-03-08T11:30:33.647Z,23.49
2019-03-08T11:31:52.996Z,23.48
2019-03-08T11:32:56.012Z,23.51
2019-03-08T11:34:05.099Z,23.51
2019-03-08T11:35:13.176Z,23.49
2019-03-08T11:36:18.700Z,23.52
2019-03-08T11:37:21.713Z,23.47
2019-03-08T11:38:30.493Z,23.49
2019-03-08T11:39:33.516Z,23.51
2019-03-08T11:40:39.087Z,23.51
2019-03-08T11:41:58.478Z,23.52
2019-03-08T11:43:01.502Z,23.49
2019-03-08T11:44:10.224Z,23.49
2019-03-08T11:45:13.368Z,23.49
2019-03-08T11:46:22.316Z,23.50
2019-03-08T11:47:25.338Z,23.47
2019-03-08T11:48:28.357Z,23.50
2019-03-08T11:49:37.331Z,23.51
2019-03-08T11:50:49.136Z,23.46
2019-03-08T11:52:00.944Z,23.45
2019-03-08T11:53:19.391Z,23.41
2019-03-08T11:54:22.412Z,23.43
2019-03-08T11:55:37.470Z,23.40
2019-03-08T11:56:43.385Z,23.42
2019-03-08T11:57:48.920Z,23.43
2019-03-08T11:59:06.815Z,23.42
2019-03-08T12:00:29.140Z,23.46
2019-03-08T12:01:32.287Z,23.43
2019-03-08T12:02:41.380Z,23.41
2019-03-08T12:03:44.398Z,23.38
2019-03-08T12:04:56.304Z,23.42
2019-03-08T12:06:01.043Z,23.45
2019-03-08T12:07:10.220Z,23.42
2019-03-08T12:08:22.087Z,23.42
2019-03-08T12:09:25.114Z,23.40
2019-03-08T12:10:37.124Z,23.42
2019-03-08T12:11:40.143Z,23.44
2019-03-08T12:12:59.504Z,23.45
2019-03-08T12:14:05.058Z,23.46
2019-03-08T12:15:28.230Z,23.47
2019-03-08T12:16:37.306Z,23.48
2019-03-08T12:17:46.074Z,23.47
2019-03-08T12:18:51.989Z,23.49
2019-03-08T12:20:06.768Z,23.47
2019-03-08T12:21:18.978Z,23.48
2019-03-08T12:22:21.997Z,23.49
2019-03-08T12:23:27.848Z,23.43
2019-03-08T12:24:30.868Z,23.47
2019-03-08T12:25:51.993Z,23.43
2019-03-08T12:27:11.584Z,23.47
2019-03-08T12:28:30.976Z,23.43
2019-03-08T12:29:36.981Z,23.46
2019-03-08T12:30:45.554Z,23.46
2019-03-08T12:32:05.423Z,23.46
2019-03-08T12:33:25.091Z,23.47
2019-03-08T12:34:28.127Z,23.43
2019-03-08T12:35:33.661Z,23.41
2019-03-08T12:36:42.259Z,23.39
2019-03-08T12:37:45.273Z,23.38
2019-03-08T12:38:54.722Z,23.34
2019-03-08T12:40:00.339Z,23.34
2019-03-08T12:41:19.889Z,23.35
2019-03-08T12:42:28.458Z,23.31
2019-03-08T12:45:14.257Z,23.34
2019-03-08T12:46:20.120Z,23.30
2019-03-08T12:47:29.524Z,23.28
2019-03-08T12:48:48.012Z,23.24
2019-03-08T12:49:51.032Z,23.25
2019-03-08T12:50:54.069Z,23.25
2019-03-08T12:52:03.755Z,23.31
2019-03-08T12:53:10.044Z,23.34
2019-03-08T12:54:29.760Z,23.34
2019-03-08T12:55:35.818Z,23.33
2019-03-08T12:56:44.461Z,23.33
2019-03-08T12:57:53.277Z,23.32
2019-03-08T12:58:56.296Z,23.30
2019-03-08T12:59:59.316Z,23.30
2019-03-08T13:01:17.653Z,23.32
2019-03-08T13:02:20.676Z,23.32
2019-03-08T13:03:26.331Z,23.30
2019-03-08T13:04:32.452Z,23.31
2019-03-08T13:05:35.677Z,23.29
2019-03-08T13:06:55.005Z,23.25
2019-03-08T13:07:58.027Z,23.25
2019-03-08T13:09:04.061Z,23.25
2019-03-08T13:10:12.484Z,23.24
2019-03-08T13:11:13.600Z,23.24
2019-03-08T13:12:14.830Z,23.21
2019-03-08T13:13:15.946Z,23.23
2019-03-08T13:14:17.071Z,23.25
2019-03-08T13:15:18.287Z,23.30
2019-03-08T13:16:19.398Z,23.24
2019-03-08T13:17:20.525Z,23.23
2019-03-08T13:18:21.640Z,23.24
2019-03-08T13:19:22.761Z,23.23
2019-03-08T13:20:24.095Z,23.24
2019-03-08T13:21:25.219Z,23.21
2019-03-08T13:22:26.344Z,23.19
2019-03-08T13:23:27.460Z,23.20
2019-03-08T13:24:28.573Z,23.19
2019-03-08T13:25:29.691Z,23.18
2019-03-08T13:26:31.201Z,23.13
2019-03-08T13:27:32.438Z,23.16
2019-03-08T13:28:33.662Z,23.11
2019-03-08T13:29:35.081Z,23.09
2019-03-08T13:30:36.299Z,23.12
2019-03-08T13:31:37.415Z,23.07
2019-03-08T13:32:38.570Z,23.08
2019-03-08T13:33:39.681Z,23.03
2019-03-08T13:34:40.896Z,23.00
2019-03-08T13:35:42.016Z,23.01
2019-03-08T13:36:43.245Z,22.99
2019-03-08T13:37:44.395Z,23.00
2019-03-08T13:38:45.921Z,23.02
2019-03-08T13:39:47.032Z,22.99
2019-03-08T13:40:48.163Z,23.02
2019-03-08T13:41:49.265Z,23.03
2019-03-08T13:42:50.391Z,23.00
2019-03-08T13:43:51.504Z,22.99
2019-03-08T13:44:52.658Z,22.98
2019-03-08T13:45:53.880Z,22.98
2019-03-08T13:46:54.996Z,22.98
2019-03-08T13:47:56.331Z,22.91
2019-03-08T13:48:57.584Z,22.85
2019-03-08T13:49:58.697Z,22.82
2019-03-08T13:50:59.815Z,22.86